sensor_id;sensor_type;location;lat;lon;timestamp;P1;durP1;ratioP1;P2;durP2;ratioP2
50092;SDS011;35974;47.752;10.290;2022-12-20T20:41:10;22.10;;;14.23;;
50092;SDS011;35974;47.752;10.290;2022-12-20T20:43:43;25.33;;;15.75;;
50092;SDS011;35974;47.752;10.290;2022-12-20T20:48:47;23.33;;;14.05;;
50092;SDS011;35974;47.752;10.290;2022-12-20T20:51:14;24.27;;;13.95;;
50092;SDS011;35974;47.752;10.290;2022-12-20T20:53:41;23.85;;;15.05;;
50092;SDS011;35974;47.752;10.290;2022-12-20T20:56:08;26.75;;;16.25;;
50092;SDS011;35974;47.752;10.290;2022-12-20T20:58:34;20.35;;;13.55;;
50092;SDS011;35974;47.752;10.290;2022-12-20T21:01:04;21.88;;;13.80;;
50092;SDS011;35974;47.752;10.290;2022-12-20T21:03:33;19.48;;;12.55;;
50092;SDS011;35974;47.752;10.290;2022-12-20T21:06:00;26.65;;;15.27;;
50092;SDS011;35974;47.752;10.290;2022-12-20T21:08:47;20.98;;;14.23;;
50092;SDS011;35974;47.752;10.290;2022-12-20T21:11:13;21.83;;;13.80;;
50092;SDS011;35974;47.752;10.290;2022-12-20T21:13:40;23.00;;;12.93;;
50092;SDS011;35974;47.752;10.290;2022-12-20T21:16:11;28.33;;;15.82;;
50092;SDS011;35974;47.752;10.290;2022-12-20T21:18:41;26.17;;;15.15;;
50092;SDS011;35974;47.752;10.290;2022-12-20T21:21:08;26.42;;;16.10;;
50092;SDS011;35974;47.752;10.290;2022-12-20T21:23:36;25.70;;;15.95;;
50092;SDS011;35974;47.752;10.290;2022-12-20T21:26:03;28.45;;;16.52;;
50092;SDS011;35974;47.752;10.290;2022-12-20T21:28:30;27.15;;;14.95;;
50092;SDS011;35974;47.752;10.290;2022-12-20T21:31:01;25.17;;;14.63;;
50092;SDS011;35974;47.752;10.290;2022-12-20T21:33:30;28.73;;;16.77;;
50092;SDS011;35974;47.752;10.290;2022-12-20T21:35:58;25.38;;;15.10;;
50092;SDS011;35974;47.752;10.290;2022-12-20T21:43:28;20.85;;;12.32;;
50092;SDS011;35974;47.752;10.290;2022-12-20T21:45:55;20.45;;;11.48;;
50092;SDS011;35974;47.752;10.290;2022-12-20T21:48:22;17.65;;;11.82;;
50092;SDS011;35974;47.752;10.290;2022-12-20T21:53:25;18.00;;;10.88;;
50092;SDS011;35974;47.752;10.290;2022-12-20T21:55:56;17.05;;;11.00;;
50092;SDS011;35974;47.752;10.290;2022-12-20T21:58:24;18.38;;;11.15;;
50092;SDS011;35974;47.752;10.290;2022-12-20T22:00:52;18.05;;;11.07;;
50092;SDS011;35974;47.752;10.290;2022-12-20T22:03:21;18.25;;;12.07;;
50092;SDS011;35974;47.752;10.290;2022-12-20T22:05:49;20.27;;;13.13;;
50092;SDS011;35974;47.752;10.290;2022-12-20T22:08:17;26.42;;;15.30;;
50092;SDS011;35974;47.752;10.290;2022-12-20T22:10:45;20.73;;;12.68;;
50092;SDS011;35974;47.752;10.290;2022-12-20T22:13:12;27.67;;;15.73;;
50092;SDS011;35974;47.752;10.290;2022-12-20T22:15:40;20.27;;;12.50;;
50092;SDS011;35974;47.752;10.290;2022-12-20T22:18:07;17.58;;;10.88;;
50092;SDS011;35974;47.752;10.290;2022-12-20T22:20:34;19.33;;;11.43;;
50092;SDS011;35974;47.752;10.290;2022-12-20T22:23:01;20.35;;;11.18;;
50092;SDS011;35974;47.752;10.290;2022-12-20T22:25:28;18.83;;;11.32;;
50092;SDS011;35974;47.752;10.290;2022-12-20T22:27:55;25.08;;;13.50;;
50092;SDS011;35974;47.752;10.290;2022-12-20T22:30:21;19.70;;;11.13;;
50092;SDS011;35974;47.752;10.290;2022-12-20T22:32:48;16.30;;;10.13;;
50092;SDS011;35974;47.752;10.290;2022-12-20T22:35:14;15.63;;;9.32;;
50092;SDS011;35974;47.752;10.290;2022-12-20T22:37:47;16.13;;;9.77;;
50092;SDS011;35974;47.752;10.290;2022-12-20T22:40:14;19.33;;;10.98;;
50092;SDS011;35974;47.752;10.290;2022-12-20T22:42:40;21.60;;;11.60;;
50092;SDS011;35974;47.752;10.290;2022-12-20T22:45:09;20.88;;;10.82;;
50092;SDS011;35974;47.752;10.290;2022-12-20T22:47:39;18.38;;;11.77;;
50092;SDS011;35974;47.752;10.290;2022-12-20T22:50:06;18.35;;;10.70;;
50092;SDS011;35974;47.752;10.290;2022-12-20T22:52:33;20.77;;;11.50;;
50092;SDS011;35974;47.752;10.290;2022-12-20T22:55:00;18.38;;;11.57;;
50092;SDS011;35974;47.752;10.290;2022-12-20T22:57:27;17.88;;;10.48;;
50092;SDS011;35974;47.752;10.290;2022-12-20T22:59:54;17.40;;;10.57;;
50092;SDS011;35974;47.752;10.290;2022-12-20T23:02:26;25.65;;;12.75;;
50092;SDS011;35974;47.752;10.290;2022-12-20T23:04:54;16.38;;;9.95;;
50092;SDS011;35974;47.752;10.290;2022-12-20T23:07:20;22.25;;;10.80;;
50092;SDS011;35974;47.752;10.290;2022-12-20T23:09:47;21.70;;;10.43;;
50092;SDS011;35974;47.752;10.290;2022-12-20T23:12:17;18.13;;;9.68;;
50092;SDS011;35974;47.752;10.290;2022-12-20T23:15:02;20.73;;;9.73;;
50092;SDS011;35974;47.752;10.290;2022-12-20T23:17:51;16.25;;;9.38;;
50092;SDS011;35974;47.752;10.290;2022-12-20T23:20:18;15.85;;;8.73;;
50092;SDS011;35974;47.752;10.290;2022-12-20T23:23:02;14.35;;;8.60;;
50092;SDS011;35974;47.752;10.290;2022-12-20T23:25:29;15.20;;;8.80;;
50092;SDS011;35974;47.752;10.290;2022-12-20T23:27:55;13.02;;;8.48;;
50092;SDS011;35974;47.752;10.290;2022-12-20T23:30:22;14.98;;;8.60;;
50092;SDS011;35974;47.752;10.290;2022-12-20T23:32:49;13.63;;;8.13;;
50092;SDS011;35974;47.752;10.290;2022-12-20T23:35:17;16.15;;;9.15;;
50092;SDS011;35974;47.752;10.290;2022-12-20T23:37:45;14.88;;;8.85;;
50092;SDS011;35974;47.752;10.290;2022-12-20T23:40:13;17.08;;;9.48;;
50092;SDS011;35974;47.752;10.290;2022-12-20T23:42:41;15.40;;;8.90;;
50092;SDS011;35974;47.752;10.290;2022-12-20T23:45:08;15.68;;;8.68;;
50092;SDS011;35974;47.752;10.290;2022-12-20T23:47:35;15.10;;;8.93;;
50092;SDS011;35974;47.752;10.290;2022-12-20T23:50:02;13.77;;;8.75;;
50092;SDS011;35974;47.752;10.290;2022-12-20T23:52:29;13.65;;;8.43;;
50092;SDS011;35974;47.752;10.290;2022-12-20T23:54:55;14.75;;;9.77;;
50092;SDS011;35974;47.752;10.290;2022-12-20T23:57:21;25.38;;;13.77;;
50092;SDS011;35974;47.752;10.290;2022-12-20T23:59:48;22.92;;;13.55;;
